Estación Meteorológica Peña el Pijo (Robertgarden) [ 06/25/17 17:34:45 CEST ]

Fecha Hora Presion(HPa) Temp (°C) Humedad % Rocio (°C) Viento ( m/s) Direccion Lluvia 1Hora(mm) Lluvia 24H(mm) LLuvia Total(mm)
2017-May-08 01:03:12 1011.900 10.1 70 4.9         1390.83
2017-May-08 02:03:10 1011.500 9.4 74 5.0         1390.83
2017-May-08 03:04:25 1011.300 9.3 76 5.2         1390.83
2017-May-08 04:03:01 1010.900 8.1 77 4.3         1390.83
2017-May-08 05:01:48 1010.800 7.9 79 4.5         1390.83
2017-May-08 06:01:46 1010.600 7.4 80 4.2         1390.83
2017-May-08 07:01:44 1010.600 6.8 80 3.6         1390.83
2017-May-08 08:01:49 1010.800 8.4 83 5.7         1390.83
2017-May-08 09:01:41 1010.600 15.8 74 11.2         1390.83
2017-May-08 10:01:44 1010.500 21.9 50 11.0         1390.83
2017-May-08 11:01:38 1010.200 26.5 37 10.6         1390.83
2017-May-08 12:01:43 1010.100 28.6 29 8.8         1390.83
2017-May-08 13:01:58 1009.800 29.4 28 8.9         1390.83
2017-May-08 14:01:52 1009.300 28.7 29 8.8         1390.83
2017-May-08 15:01:56 1008.600 30.4 27 9.1         1390.83
2017-May-08 16:01:40 1008.200 27.8 31 9.1         1390.83
2017-May-08 17:01:51 1007.400 29.4 28 8.9 0.6 SSW     1390.83
2017-May-08 18:01:54 1007.200 29.2 27 8.1 0.3 E     1390.83
2017-May-08 19:01:46 1007.000 25.6 29 6.2 3.4 S     1390.83
2017-May-08 20:01:46 1007.400 22.2 32 4.7         1390.83
2017-May-08 21:01:43 1007.900 19.8 38 5.0         1390.83
2017-May-08 22:01:57 1008.300 16.2 51 6.0         1390.83
2017-May-08 23:01:58 1008.400 13.9 59 6.0         1390.83

Temperatura Máxima:30°    Temperatura Mínima:
Presión Máxima:1011.900 Hpa    Presión Mínima:1007.000 Hpa


Volver